»·PEaware :: UAL416 KDEN-KPDX

UAL416 :: KDEN-KPDX

FLIGHT INFORMATION

Flight Status: Arrived
Operator:
United Airlines
More flights by this operator :: More flights under this callsign
Pilot: Anonymous 12234 (12234)
Aircraft: AIRBUS A319
(A319)
More flights by this aircraft type
Origin: KDEN Denver Intl
United States
Destination: KPDX Portland Intl
United States
More flights between these airports :: More routes between these airports
Route: FOOOT3 RLG EKR BOI JOTBA HHOOD4
File this flight plan on PilotEdge
Remarks:
Altitude:
(Current/Filed)
34,000ft
Speed:
(Current/Filed)
459kts
Departed: 11-Sep-18 01:54 PM
Arrived: 11-Sep-18 04:14 PM
Distance/Time
Traveled:
859nm/2:20
Distance/Time
To Go:
Arrived

Flight Plot

Page will automatically refresh every two minutes.

Flight plan parsing failed; only flown route is shown


Map Options




Map Legend


Flown Route
Filed Route
Departure Airport
Arrival Airport
Navaid (VOR, NDB)
Fix

Horizontal Profiles

Position Reports

Time Latitude Longitude Heading Altitude Ground
Speed
11-Sep-18 13:28 39.858086 -104.676785 351 5328ft 0kts
11-Sep-18 13:29 39.858086 -104.676785 351 5328ft 0kts
11-Sep-18 13:30 39.858086 -104.676785 351 5328ft 0kts
11-Sep-18 13:31 39.858086 -104.676785 351 5328ft 0kts
11-Sep-18 13:32 39.858086 -104.676785 351 5328ft 0kts
11-Sep-18 13:33 39.858086 -104.676785 351 5328ft 0kts
11-Sep-18 13:34 39.858086 -104.676785 351 5328ft 0kts
11-Sep-18 13:35 39.858086 -104.676785 351 5328ft 0kts
11-Sep-18 13:36 39.858086 -104.676785 351 5328ft 0kts
11-Sep-18 13:37 39.858086 -104.676785 351 5328ft 0kts
11-Sep-18 13:38 39.858086 -104.676785 351 5328ft 0kts
11-Sep-18 13:39 39.858086 -104.676785 351 5328ft 0kts
11-Sep-18 13:40 39.858086 -104.676785 351 5328ft 0kts
11-Sep-18 13:41 39.858086 -104.676785 351 5328ft 0kts
11-Sep-18 13:42 39.858086 -104.676785 351 5328ft 0kts
11-Sep-18 13:43 39.858085 -104.676784 350 5328ft 0kts
11-Sep-18 13:44 39.857483 -104.676728 359 5328ft 2kts
11-Sep-18 13:45 39.857225 -104.676723 359 5328ft 0kts
11-Sep-18 13:46 39.857225 -104.676723 359 5328ft 0kts
11-Sep-18 13:47 39.857225 -104.676723 359 5328ft 0kts
11-Sep-18 13:48 39.857255 -104.676731 339 5328ft 0kts
11-Sep-18 13:49 39.857223 -104.678484 264 5328ft 9kts
11-Sep-18 13:50 39.856867 -104.682653 269 5328ft 0kts
11-Sep-18 13:51 39.855533 -104.683975 179 5328ft 14kts
11-Sep-18 13:52 39.851298 -104.684025 181 5328ft 21kts
11-Sep-18 13:53 39.845152 -104.684095 179 5328ft 17kts
11-Sep-18 13:54 39.841738 -104.684125 179 5328ft 2kts
11-Sep-18 13:55 39.840673 -104.685000 267 5328ft 10kts
11-Sep-18 13:56 39.841002 -104.720094 272 5713ft 170kts
11-Sep-18 13:57 39.851646 -104.780542 303 7302ft 212kts
11-Sep-18 13:58 39.887938 -104.855802 299 8864ft 276kts
11-Sep-18 13:59 39.928232 -104.946746 294 11047ft 313kts
11-Sep-18 14:00 39.956166 -105.060361 277 12703ft 359kts
11-Sep-18 14:01 39.969550 -105.184780 276 15292ft 368kts
11-Sep-18 14:02 39.981735 -105.304877 276 17092ft 386kts
11-Sep-18 14:03 39.979263 -105.450786 267 18197ft 420kts
11-Sep-18 14:04 39.976009 -105.600143 268 19581ft 434kts
11-Sep-18 14:05 39.973901 -105.754490 269 21324ft 435kts
11-Sep-18 14:06 39.974220 -105.912830 273 22525ft 447kts
11-Sep-18 14:07 39.982989 -106.075331 273 23723ft 455kts
11-Sep-18 14:08 39.991853 -106.239677 273 25115ft 455kts
11-Sep-18 14:09 40.000358 -106.400978 273 26701ft 449kts
11-Sep-18 14:10 40.008402 -106.561831 273 28139ft 444kts
11-Sep-18 14:11 40.015889 -106.717348 273 29420ft 440kts
11-Sep-18 14:12 40.023310 -106.875121 273 30699ft 435kts
11-Sep-18 14:13 40.030438 -107.030889 273 31934ft 429kts
11-Sep-18 14:14 40.037223 -107.184156 273 33008ft 424kts
11-Sep-18 14:15 40.043737 -107.335820 273 34043ft 418kts
11-Sep-18 14:16 40.049996 -107.485567 273 34041ft 418kts
11-Sep-18 14:17 40.056139 -107.636810 273 34038ft 418kts
11-Sep-18 14:18 40.061992 -107.785889 273 34040ft 418kts
11-Sep-18 14:19 40.084281 -107.933795 287 34045ft 419kts
11-Sep-18 14:20 40.135725 -108.067382 299 34042ft 422kts
11-Sep-18 14:21 40.197787 -108.196915 299 34043ft 422kts
11-Sep-18 14:22 40.259646 -108.326681 299 34035ft 422kts
11-Sep-18 14:23 40.321291 -108.456508 299 33990ft 422kts
11-Sep-18 14:24 40.382935 -108.586865 299 33947ft 423kts
11-Sep-18 14:25 40.441950 -108.712408 298 33935ft 423kts
11-Sep-18 14:26 40.503027 -108.842924 298 33935ft 423kts
11-Sep-18 14:27 40.564169 -108.973900 298 33935ft 423kts
11-Sep-18 14:28 40.625505 -109.105666 297 33928ft 422kts
11-Sep-18 14:29 40.686286 -109.236924 297 33915ft 422kts
11-Sep-18 14:30 40.746897 -109.368508 297 33909ft 422kts
11-Sep-18 14:31 40.807515 -109.500572 297 33909ft 422kts
11-Sep-18 14:32 40.867528 -109.631863 297 33909ft 422kts
11-Sep-18 14:33 40.922360 -109.752647 296 33908ft 422kts
11-Sep-18 14:34 40.981640 -109.883536 296 33909ft 423kts
11-Sep-18 14:35 41.041407 -110.015939 296 33947ft 425kts
11-Sep-18 14:36 41.100153 -110.146651 295 34006ft 427kts
11-Sep-18 14:37 41.160646 -110.280749 295 34036ft 429kts
11-Sep-18 14:38 41.221214 -110.416376 295 34043ft 429kts
11-Sep-18 14:39 41.281135 -110.551439 295 34043ft 429kts
11-Sep-18 14:40 41.341080 -110.687285 295 34039ft 429kts
11-Sep-18 14:41 41.400717 -110.823304 295 34043ft 429kts
11-Sep-18 14:42 41.460206 -110.959330 295 34043ft 428kts
11-Sep-18 14:43 41.515499 -111.086263 295 34043ft 425kts
11-Sep-18 14:44 41.574453 -111.222151 295 34043ft 424kts
11-Sep-18 14:45 41.633345 -111.358531 295 34039ft 424kts
11-Sep-18 14:46 41.691881 -111.494698 295 33984ft 424kts
11-Sep-18 14:47 41.750183 -111.630974 295 33928ft 424kts
11-Sep-18 14:48 41.808136 -111.767404 294 33911ft 424kts
11-Sep-18 14:49 41.866042 -111.904136 294 33909ft 424kts
11-Sep-18 14:50 41.924081 -112.041708 294 33909ft 424kts
11-Sep-18 14:51 41.981990 -112.179581 294 33909ft 424kts
11-Sep-18 14:52 42.039529 -112.317213 294 33909ft 424kts
11-Sep-18 14:53 42.097007 -112.455348 294 33909ft 424kts
11-Sep-18 14:54 42.154151 -112.592209 295 33909ft 425kts
11-Sep-18 14:55 42.210923 -112.729794 294 33908ft 424kts
11-Sep-18 14:56 42.267944 -112.868863 293 33909ft 423kts
11-Sep-18 14:57 42.324602 -113.007529 293 33909ft 423kts
11-Sep-18 14:58 42.381075 -113.146584 292 33909ft 423kts
11-Sep-18 14:59 42.437308 -113.285662 292 33908ft 424kts
11-Sep-18 15:00 42.493335 -113.424867 292 33909ft 424kts
11-Sep-18 15:01 42.549272 -113.564504 292 33909ft 424kts
11-Sep-18 15:02 42.605034 -113.704530 292 33907ft 423kts
11-Sep-18 15:03 42.660573 -113.844788 292 33909ft 423kts
11-Sep-18 15:04 42.716028 -113.985280 292 33908ft 423kts
11-Sep-18 15:05 42.771201 -114.125718 292 33909ft 423kts
11-Sep-18 15:06 42.826285 -114.266604 292 33909ft 423kts
11-Sep-18 15:07 42.881252 -114.407888 292 33909ft 423kts
11-Sep-18 15:08 42.935979 -114.549293 292 33908ft 425kts
11-Sep-18 15:09 42.990525 -114.690993 291 33905ft 426kts
11-Sep-18 15:10 43.045145 -114.833788 292 33908ft 428kts
11-Sep-18 15:11 43.099818 -114.977145 292 33909ft 428kts
11-Sep-18 15:12 43.153844 -115.118127 291 33909ft 424kts
11-Sep-18 15:13 43.207497 -115.259933 290 33908ft 421kts
11-Sep-18 15:14 43.261022 -115.402473 290 33896ft 421kts
11-Sep-18 15:15 43.314019 -115.544310 290 33884ft 421kts
11-Sep-18 15:16 43.366120 -115.684519 290 33876ft 421kts
11-Sep-18 15:17 43.418684 -115.826877 290 33881ft 419kts
11-Sep-18 15:18 43.470564 -115.967855 290 33880ft 419kts
11-Sep-18 15:19 43.522519 -116.109730 290 33880ft 418kts
11-Sep-18 15:20 43.576022 -116.251781 292 33880ft 420kts
11-Sep-18 15:21 43.631679 -116.389639 292 33880ft 422kts
11-Sep-18 15:22 43.646148 -116.425744 292 33880ft 422kts
11-Sep-18 15:23 43.702521 -116.567144 292 33888ft 423kts
11-Sep-18 15:24 43.758267 -116.707960 291 33898ft 422kts
11-Sep-18 15:25 43.814162 -116.850006 291 33891ft 423kts
11-Sep-18 15:26 43.870261 -116.992981 291 33903ft 421kts
11-Sep-18 15:27 43.925569 -117.134660 290 33907ft 418kts
11-Sep-18 15:28 43.980292 -117.275691 290 33907ft 417kts
11-Sep-18 15:29 44.035019 -117.417397 290 33906ft 419kts
11-Sep-18 15:30 44.089773 -117.559830 290 33907ft 419kts
11-Sep-18 15:31 44.143981 -117.700590 290 33910ft 418kts
11-Sep-18 15:32 44.198403 -117.843323 289 33938ft 417kts
11-Sep-18 15:33 44.252279 -117.985600 289 33957ft 416kts
11-Sep-18 15:34 44.306190 -118.128735 290 33962ft 416kts
11-Sep-18 15:35 44.359506 -118.271009 290 33962ft 417kts
11-Sep-18 15:36 44.413033 -118.414589 290 33961ft 417kts
11-Sep-18 15:37 44.466258 -118.558097 289 33961ft 417kts
11-Sep-18 15:38 44.517911 -118.698193 289 33959ft 417kts
11-Sep-18 15:39 44.570821 -118.842552 289 33961ft 417kts
11-Sep-18 15:40 44.623586 -118.986878 287 33961ft 416kts
11-Sep-18 15:41 44.676042 -119.131429 287 33962ft 416kts
11-Sep-18 15:42 44.728375 -119.276407 287 33962ft 416kts
11-Sep-18 15:43 44.780077 -119.420280 287 33962ft 416kts
11-Sep-18 15:44 44.831997 -119.565499 287 33962ft 417kts
11-Sep-18 15:45 44.882843 -119.708620 286 33960ft 416kts
11-Sep-18 15:46 44.934460 -119.854734 286 33905ft 416kts
11-Sep-18 15:47 44.985386 -119.999523 286 33003ft 415kts
11-Sep-18 15:48 45.036279 -120.145023 287 31441ft 419kts
11-Sep-18 15:49 45.088044 -120.293920 288 27960ft 427kts
11-Sep-18 15:50 45.134377 -120.426273 289 26066ft 408kts
11-Sep-18 15:51 45.184011 -120.566129 292 24001ft 396kts
11-Sep-18 15:52 45.235547 -120.698414 292 22034ft 384kts
11-Sep-18 15:53 45.284852 -120.826800 292 20118ft 374kts
11-Sep-18 15:54 45.333491 -120.954030 293 18207ft 365kts
11-Sep-18 15:55 45.380446 -121.077419 294 16913ft 337kts
11-Sep-18 15:56 45.422352 -121.189536 292 15527ft 317kts
11-Sep-18 15:57 45.448686 -121.305832 284 14137ft 318kts
11-Sep-18 15:58 45.472005 -121.424157 284 12752ft 314kts
11-Sep-18 15:59 45.493798 -121.534292 285 11464ft 292kts
11-Sep-18 16:00 45.510559 -121.619474 284 10485ft 281kts
11-Sep-18 16:01 45.523231 -121.684274 284 9746ft 274kts
11-Sep-18 16:02 45.531575 -121.775715 271 8675ft 267kts
11-Sep-18 16:03 45.534717 -121.864100 272 7640ft 263kts
11-Sep-18 16:04 45.537778 -121.951599 272 6673ft 256kts
11-Sep-18 16:05 45.541617 -122.024148 271 6666ft 217kts
11-Sep-18 16:06 45.523793 -122.079220 234 6671ft 215kts
11-Sep-18 16:07 45.499922 -122.126646 235 6187ft 219kts
11-Sep-18 16:08 45.471935 -122.214568 269 4898ft 220kts
11-Sep-18 16:09 45.472317 -122.285508 276 3917ft 222kts
11-Sep-18 16:10 45.494348 -122.361599 297 3331ft 199kts
11-Sep-18 16:11 45.523587 -122.437304 297 2378ft 174kts
11-Sep-18 16:12 45.540618 -122.481090 298 1570ft 132kts
11-Sep-18 16:13 45.557974 -122.525721 297 977ft 134kts
11-Sep-18 16:14 45.574665 -122.568806 296 312ft 125kts
11-Sep-18 16:15 45.588402 -122.604178 299 38ft 46kts
11-Sep-18 16:16 45.593097 -122.613107 33 38ft 13kts
11-Sep-18 16:17 45.592261 -122.609263 119 38ft 15kts
11-Sep-18 16:18 45.591377 -122.602318 90 38ft 19kts
11-Sep-18 16:19 45.593005 -122.597479 61 38ft 15kts
11-Sep-18 16:20 45.591065 -122.591394 120 38ft 14kts
11-Sep-18 16:21 45.589849 -122.590576 227 38ft 3kts
11-Sep-18 16:22 45.589847 -122.590579 227 38ft 0kts
11-Sep-18 16:23 45.589847 -122.590579 227 38ft 0kts
11-Sep-18 16:24 45.589847 -122.590579 227 38ft 0kts
11-Sep-18 16:25 45.589847 -122.590579 227 38ft 0kts

Navigation Log

Ident Type
Flight plan parsing failed, navigation log unavailable